Time;durP1;ratioP1;P1;durP2;ratioP2;P2;SDS_P1;SDS_P2;PMS_P1;PMS_P2;Temp;Humidity;BMP_temperature;BMP_pressure;BME280_temperature;BME280_humidity;BME280_pressure;Samples;Min_cycle;Max_cycle;Signal;HPM_P1;HPM_P2
2022/02/25 00:01:55;;;;;;;1.45;0.65;;;;;;;;;;5111658;28;20434;-58
2022/02/25 00:10:14;;;;;;;1.00;0.30;;;;;;;;;;5028550;28;20121;-57
2022/02/25 00:13:02;;;;;;;0.87;0.37;;;;;;;;;;5012299;28;20034;-58
2022/02/25 00:15:57;;;;;;;0.77;0.30;;;;;;;;;;5028949;28;20030;-58
2022/02/25 00:21:58;;;;;;;0.93;0.45;;;;;;;;;;4970169;28;20031;-58
2022/02/25 00:24:30;;;;;;;2.57;0.90;;;;;;;;;;4970439;29;20067;-58
2022/02/25 00:27:19;;;;;;;0.90;0.63;;;;;;;;;;4978376;28;20050;-57
2022/02/25 00:30:20;;;;;;;1.80;0.60;;;;;;;;;;4992076;28;20046;-57
2022/02/25 00:33:21;;;;;;;0.77;0.37;;;;;;;;;;5023156;28;20456;-55
2022/02/25 00:36:07;;;;;;;8.53;0.77;;;;;;;;;;5055791;28;20115;-58
2022/02/25 00:39:17;;;;;;;1.10;0.40;;;;;;;;;;5108649;28;20039;-58
2022/02/25 00:42:12;;;;;;;6.47;1.17;;;;;;;;;;5110880;28;20342;-58
2022/02/25 00:44:58;;;;;;;0.67;0.40;;;;;;;;;;5110497;28;20028;-58
2022/02/25 00:47:27;;;;;;;2.97;1.03;;;;;;;;;;5092104;28;20066;-58
2022/02/25 00:50:45;;;;;;;1.57;0.60;;;;;;;;;;5092522;28;20028;-58
2022/02/25 00:53:20;;;;;;;2.90;0.80;;;;;;;;;;5008652;28;20048;-58
2022/02/25 00:56:00;;;;;;;1.43;0.60;;;;;;;;;;5008534;28;20377;-58
2022/02/25 00:59:05;;;;;;;1.23;0.47;;;;;;;;;;5007868;28;20046;-58
2022/02/25 01:01:43;;;;;;;2.93;0.80;;;;;;;;;;5010726;28;20097;-59
2022/02/25 01:07:20;;;;;;;1.20;0.60;;;;;;;;;;5028197;28;20037;-58
2022/02/25 01:10:04;;;;;;;1.10;0.30;;;;;;;;;;5028398;28;20105;-58
2022/02/25 01:12:49;;;;;;;0.60;0.30;;;;;;;;;;5012863;28;20497;-59
2022/02/25 01:15:44;;;;;;;1.07;0.57;;;;;;;;;;5028582;28;20041;-58
2022/02/25 01:21:42;;;;;;;;;;;;;;;;;;;;;
2022/02/25 01:24:31;;;;;;;2.50;0.83;;;;;;;;;;5026480;28;20064;-57
2022/02/25 01:27:02;;;;;;;2.77;0.47;;;;;;;;;;5109316;28;20052;-57
2022/02/25 01:29:35;;;;;;;2.13;1.10;;;;;;;;;;5091197;28;20039;-57
2022/02/25 01:35:16;;;;;;;1.53;0.80;;;;;;;;;;5109146;28;20040;-57
2022/02/25 01:37:52;;;;;;;1.63;0.90;;;;;;;;;;5109495;28;20040;-57
2022/02/25 01:40:54;;;;;;;;;;;;;;;;;;;;;
2022/02/25 01:50:01;;;;;;;4.10;1.07;;;;;;;;;;5108879;28;20032;-57
2022/02/25 01:52:56;;;;;;;1.10;0.60;;;;;;;;;;5104569;28;20024;-57
2022/02/25 01:55:48;;;;;;;4.17;0.70;;;;;;;;;;5007020;28;20035;-57
2022/02/25 01:58:36;;;;;;;1.37;0.83;;;;;;;;;;5105159;28;20051;-55
2022/02/25 02:01:28;;;;;;;0.63;0.33;;;;;;;;;;5109475;28;20045;-58
2022/02/25 02:04:10;;;;;;;1.63;0.80;;;;;;;;;;5109030;28;20035;-57
2022/02/25 02:09:58;;;;;;;;;;;;;;;;;;;;;
2022/02/25 02:15:59;;;;;;;1.17;0.63;;;;;;;;;;5108624;28;20040;-57
2022/02/25 02:24:41;;;;;;;1.52;1.05;;;;;;;;;;5107245;28;20028;-56
2022/02/25 02:30:37;;;;;;;4.03;1.73;;;;;;;;;;5104547;28;20093;-59
2022/02/25 02:39:57;;;;;;;0.23;0.20;;;;;;;;;;5108702;28;20128;-55
2022/02/25 02:48:24;;;;;;;1.53;0.93;;;;;;;;;;5109099;28;20046;-59
2022/02/25 02:51:17;;;;;;;4.27;0.83;;;;;;;;;;5108754;28;20040;-59
2022/02/25 02:53:56;;;;;;;3.03;1.07;;;;;;;;;;5070143;28;20047;-59
2022/02/25 02:56:34;;;;;;;1.17;0.57;;;;;;;;;;5085304;28;20040;-55
2022/02/25 02:59:14;;;;;;;2.17;0.30;;;;;;;;;;5067340;28;20027;-57
2022/02/25 03:02:12;;;;;;;2.33;0.38;;;;;;;;;;5090644;28;20028;-58
2022/02/25 03:11:21;;;;;;;;;;;;;;;;;;;;;
2022/02/25 03:14:02;;;;;;;1.50;0.80;;;;;;;;;;5108498;28;20063;-57
2022/02/25 03:16:31;;;;;;;2.20;0.60;;;;;;;;;;5076446;28;20123;-58
2022/02/25 03:22:25;;;;;;;0.53;0.33;;;;;;;;;;5111924;28;20123;-58
2022/02/25 03:25:26;;;;;;;4.77;0.80;;;;;;;;;;5112102;28;20442;-57
2022/02/25 03:31:11;;;;;;;3.20;1.67;;;;;;;;;;5111779;28;20087;-57
2022/02/25 03:37:06;;;;;;;13.23;1.90;;;;;;;;;;5079916;28;20040;-58
2022/02/25 03:39:48;;;;;;;1.03;0.50;;;;;;;;;;5093856;28;20169;-58
2022/02/25 03:42:37;;;;;;;1.17;0.70;;;;;;;;;;5112232;28;20050;-58
2022/02/25 03:45:34;;;;;;;5.93;2.07;;;;;;;;;;5111943;28;20119;-56
2022/02/25 03:48:09;;;;;;;4.50;1.07;;;;;;;;;;5111627;28;20050;-57
2022/02/25 03:50:39;;;;;;;2.40;0.90;;;;;;;;;;5110820;28;20421;-58
2022/02/25 03:53:33;;;;;;;5.50;0.67;;;;;;;;;;5111547;28;20047;-56
2022/02/25 03:59:13;;;;;;;3.40;1.07;;;;;;;;;;5092706;28;20465;-58
2022/02/25 04:01:52;;;;;;;3.03;1.20;;;;;;;;;;5111007;28;20020;-58
2022/02/25 04:07:29;;;;;;;2.87;0.73;;;;;;;;;;5095913;28;20024;-58
2022/02/25 04:10:14;;;;;;;;;;;;;;;;;;;;;
2022/02/25 04:19:04;;;;;;;2.07;0.57;;;;;;;;;;5028838;28;20045;-58
2022/02/25 04:24:34;;;;;;;1.05;0.55;;;;;;;;;;5015733;28;20030;-58
2022/02/25 04:27:28;;;;;;;0.90;0.43;;;;;;;;;;5015989;28;20058;-57
2022/02/25 04:38:47;;;;;;;12.70;0.63;;;;;;;;;;4994510;28;20157;-57
2022/02/25 04:41:18;;;;;;;4.40;0.90;;;;;;;;;;4994349;28;20118;-58
2022/02/25 04:44:13;;;;;;;1.20;0.83;;;;;;;;;;5064659;28;20449;-58
2022/02/25 04:47:00;;;;;;;;;;;;;;;;;;;;;
2022/02/25 04:53:00;;;;;;;3.73;1.60;;;;;;;;;;5076037;28;20032;-57
2022/02/25 04:55:41;;;;;;;2.07;1.13;;;;;;;;;;4994231;28;20038;-58
2022/02/25 05:01:05;;;;;;;1.17;0.73;;;;;;;;;;5074797;28;20032;-58
2022/02/25 05:03:44;;;;;;;4.13;1.20;;;;;;;;;;5057213;28;20052;-58
2022/02/25 05:06:34;;;;;;;5.27;0.73;;;;;;;;;;5075951;28;20028;-57
2022/02/25 05:09:36;;;;;;;4.83;0.70;;;;;;;;;;5048222;28;20032;-58
2022/02/25 05:12:38;;;;;;;0.40;0.27;;;;;;;;;;5036963;28;20123;-56
2022/02/25 05:21:37;;;;;;;1.33;0.57;;;;;;;;;;5075023;28;20073;-57
2022/02/25 05:24:40;;;;;;;;;;;;;;;;;;;;;
2022/02/25 05:27:25;;;;;;;;;;;;;;;;;;;;;
2022/02/25 05:30:23;;;;;;;1.27;0.50;;;;;;;;;;5090551;28;20093;-56
2022/02/25 05:33:32;;;;;;;;;;;;;;;;;;;;;
2022/02/25 05:42:29;;;;;;;2.00;0.70;;;;;;;;;;5014551;28;20127;-58
2022/02/25 05:45:09;;;;;;;3.03;1.43;;;;;;;;;;4993269;28;20041;-58
2022/02/25 05:47:43;;;;;;;1.67;0.77;;;;;;;;;;4993678;28;20034;-57
2022/02/25 05:50:44;;;;;;;1.90;0.70;;;;;;;;;;5038274;28;20048;-58
2022/02/25 05:53:10;;;;;;;2.90;1.33;;;;;;;;;;5048600;28;20467;-58
2022/02/25 05:55:36;;;;;;;5.80;1.50;;;;;;;;;;5052739;28;20033;-58
2022/02/25 05:58:16;;;;;;;7.17;1.07;;;;;;;;;;5034895;28;20076;-58
2022/02/25 06:01:08;;;;;;;13.50;1.63;;;;;;;;;;5035849;28;20071;-57
2022/02/25 06:04:18;;;;;;;3.37;0.90;;;;;;;;;;5049816;28;20037;-58
2022/02/25 06:07:25;;;;;;;;;;;;;;;;;;;;;
2022/02/25 06:13:02;;;;;;;1.70;0.90;;;;;;;;;;4993426;28;20030;-58
2022/02/25 06:18:37;;;;;;;1.30;0.93;;;;;;;;;;5053159;28;20037;-57
2022/02/25 06:24:22;;;;;;;2.27;1.63;;;;;;;;;;5048502;28;20085;-57
2022/02/25 06:26:58;;;;;;;4.72;1.35;;;;;;;;;;5073939;28;20405;-58
2022/02/25 06:29:37;;;;;;;13.20;1.17;;;;;;;;;;5094120;28;20034;-57
2022/02/25 06:32:07;;;;;;;5.40;0.77;;;;;;;;;;5075448;28;20046;-57
2022/02/25 06:35:07;;;;;;;;;;;;;;;;;;;;;
2022/02/25 06:41:12;;;;;;;3.50;0.77;;;;;;;;;;5093767;28;20062;-55
2022/02/25 06:46:45;;;;;;;1.93;1.43;;;;;;;;;;5000743;28;20036;-58
2022/02/25 06:55:14;;;;;;;2.47;0.90;;;;;;;;;;5098218;28;20109;-58
2022/02/25 06:58:00;;;;;;;2.57;0.60;;;;;;;;;;5055374;28;20041;-57
2022/02/25 07:01:01;;;;;;;2.47;1.30;;;;;;;;;;5037801;28;20584;-59
2022/02/25 07:06:54;;;;;;;3.07;2.47;;;;;;;;;;5042423;28;20352;-58
2022/02/25 07:09:32;;;;;;;3.83;1.77;;;;;;;;;;5005843;28;20032;-58
2022/02/25 07:12:23;;;;;;;7.43;1.50;;;;;;;;;;5055244;28;20108;-58
2022/02/25 07:14:55;;;;;;;3.03;2.13;;;;;;;;;;4996361;28;20042;-57
2022/02/25 07:17:34;;;;;;;2.40;0.93;;;;;;;;;;4995524;28;20046;-58
2022/02/25 07:20:29;;;;;;;6.20;1.40;;;;;;;;;;4979551;28;20121;-59
2022/02/25 07:23:14;;;;;;;3.43;1.83;;;;;;;;;;4996558;28;20039;-55
2022/02/25 07:28:35;;;;;;;5.83;1.63;;;;;;;;;;5008080;28;20132;-58
2022/02/25 07:31:24;;;;;;;6.57;1.53;;;;;;;;;;5018335;28;20526;-57
2022/02/25 07:37:02;;;;;;;5.87;1.87;;;;;;;;;;5027764;28;20044;-57
2022/02/25 07:39:39;;;;;;;2.23;0.97;;;;;;;;;;5067906;28;20032;-55
2022/02/25 07:42:45;;;;;;;2.23;0.80;;;;;;;;;;5097676;28;20052;-56
2022/02/25 07:45:34;;;;;;;2.50;1.10;;;;;;;;;;5097806;28;20024;-56
2022/02/25 07:48:35;;;;;;;6.95;1.05;;;;;;;;;;5098139;28;20032;-58
2022/02/25 07:51:09;;;;;;;9.07;1.70;;;;;;;;;;5093376;28;20465;-55
2022/02/25 07:54:03;;;;;;;;;;;;;;;;;;;;;
2022/02/25 08:02:29;;;;;;;2.97;0.90;;;;;;;;;;5089598;28;20376;-57
2022/02/25 08:05:39;;;;;;;;;;;;;;;;;;;;;
2022/02/25 08:08:13;;;;;;;5.23;0.93;;;;;;;;;;5094260;28;20032;-56
2022/02/25 08:11:08;;;;;;;3.70;1.47;;;;;;;;;;5096945;28;20027;-57
2022/02/25 08:14:01;;;;;;;3.10;1.10;;;;;;;;;;5053461;28;20115;-57
2022/02/25 08:16:40;;;;;;;3.00;1.50;;;;;;;;;;5055231;28;20044;-58
2022/02/25 08:19:30;;;;;;;15.10;1.10;;;;;;;;;;5091669;28;20466;-57
2022/02/25 08:22:00;;;;;;;;;;;;;;;;;;5098225;28;20035;-57
2022/02/25 08:24:50;;;;;;;2.20;0.93;;;;;;;;;;5097096;28;19962;-57
2022/02/25 08:27:26;;;;;;;3.07;0.93;;;;;;;;;;5094136;28;20080;-57
2022/02/25 08:33:11;;;;;;;;;;;;;;;;;;;;;
2022/02/25 08:36:08;;;;;;;1.17;0.57;;;;;;;;;;5083922;28;20115;-57
2022/02/25 08:38:46;;;;;;;2.03;0.73;;;;;;;;;;5096512;28;20028;-57
2022/02/25 08:41:27;;;;;;;2.90;0.83;;;;;;;;;;5080095;28;20074;-56
2022/02/25 08:44:13;;;;;;;;;;;;;;;;;;5096925;28;20036;-57
2022/02/25 08:49:54;;;;;;;3.57;1.23;;;;;;;;;;5096030;28;20466;-58
2022/02/25 08:52:49;;;;;;;4.00;0.83;;;;;;;;;;5093077;28;20056;-58
2022/02/25 08:58:38;;;;;;;1.37;0.80;;;;;;;;;;5095745;28;20036;-57
2022/02/25 09:04:18;;;;;;;2.07;0.93;;;;;;;;;;5012938;28;20280;-57
2022/02/25 09:10:34;;;;;;;;;;;;;;;;;;;;;
2022/02/25 09:13:29;;;;;;;;;;;;;;;;;;;;;
2022/02/25 09:19:21;;;;;;;8.15;1.42;;;;;;;;;;5013054;28;20456;-57
2022/02/25 09:28:42;;;;;;;6.72;1.52;;;;;;;;;;5046966;28;20271;-57
2022/02/25 09:31:38;;;;;;;3.57;1.20;;;;;;;;;;5057139;28;20072;-56
2022/02/25 09:34:26;;;;;;;;;;;;;;;;;;;;;
2022/02/25 09:36:58;;;;;;;5.15;1.23;;;;;;;;;;5074612;28;20025;-58
2022/02/25 09:39:37;;;;;;;9.32;1.00;;;;;;;;;;5075894;28;20021;-55
2022/02/25 09:42:09;;;;;;;2.67;0.98;;;;;;;;;;5013130;28;20076;-56
2022/02/25 09:44:47;;;;;;;1.77;0.70;;;;;;;;;;5013319;28;20033;-57
2022/02/25 09:50:45;;;;;;;5.30;0.87;;;;;;;;;;4973190;28;20181;-56
2022/02/25 09:53:43;;;;;;;3.83;0.82;;;;;;;;;;4995343;28;20042;-57
2022/02/25 09:56:58;;;;;;;0.93;0.60;;;;;;;;;;4974678;28;20026;-57
2022/02/25 09:59:51;;;;;;;3.42;0.63;;;;;;;;;;4934157;29;20028;-56
2022/02/25 10:02:42;;;;;;;;;;;;;;;;;;;;;
2022/02/25 10:12:00;;;;;;;9.75;1.48;;;;;;;;;;5069407;28;20154;-59
2022/02/25 10:14:57;;;;;;;9.18;0.93;;;;;;;;;;5074134;28;20104;-58
2022/02/25 10:21:23;;;;;;;;;;;;;;;;;;;;;
2022/02/25 10:24:07;;;;;;;9.40;1.63;;;;;;;;;;4972412;28;20034;-58
2022/02/25 10:36:16;;;;;;;8.43;1.30;;;;;;;;;;5088040;28;20048;-58
2022/02/25 10:38:51;;;;;;;1.83;0.55;;;;;;;;;;5095425;28;20036;-58
2022/02/25 10:41:40;;;;;;;6.25;1.10;;;;;;;;;;5070681;28;20039;-58
2022/02/25 10:44:38;;;;;;;3.38;0.88;;;;;;;;;;5085749;28;20040;-58
2022/02/25 10:50:11;;;;;;;2.17;0.70;;;;;;;;;;5077180;28;20070;-57
2022/02/25 10:52:56;;;;;;;3.28;1.00;;;;;;;;;;5060423;28;20033;-59
2022/02/25 10:55:26;;;;;;;1.88;0.73;;;;;;;;;;5093833;28;20024;-58
2022/02/25 10:57:56;;;;;;;0.47;0.20;;;;;;;;;;5093167;28;20072;-58
2022/02/25 11:03:41;;;;;;;6.90;0.93;;;;;;;;;;5093850;28;20032;-58
2022/02/25 11:06:29;;;;;;;2.42;0.65;;;;;;;;;;5093419;28;20047;-57
2022/02/25 11:12:07;;;;;;;1.85;0.65;;;;;;;;;;5093905;28;20028;-58
2022/02/25 11:15:00;;;;;;;1.33;0.50;;;;;;;;;;5093988;28;20111;-55
2022/02/25 11:17:50;;;;;;;;;;;;;;;;;;;;;
2022/02/25 11:20:48;;;;;;;2.03;0.32;;;;;;;;;;5089384;28;20036;-57
2022/02/25 11:26:33;;;;;;;5.68;0.82;;;;;;;;;;5093284;28;20031;-58
2022/02/25 11:29:36;;;;;;;3.05;0.90;;;;;;;;;;5093414;28;20174;-58
2022/02/25 11:32:35;;;;;;;2.05;0.65;;;;;;;;;;5074070;28;20119;-57
2022/02/25 11:35:35;;;;;;;3.53;1.08;;;;;;;;;;5034465;28;20391;-59
2022/02/25 11:38:27;;;;;;;3.60;1.08;;;;;;;;;;4984323;28;20042;-58
2022/02/25 11:41:22;;;;;;;2.65;0.50;;;;;;;;;;5023987;28;20501;-58
2022/02/25 11:44:28;;;;;;;2.65;0.85;;;;;;;;;;4993324;28;20033;-58
2022/02/25 11:47:39;;;;;;;5.38;1.60;;;;;;;;;;4981066;28;20369;-58
2022/02/25 11:56:28;;;;;;;0.45;0.20;;;;;;;;;;4995042;28;20034;-56
2022/02/25 11:59:14;;;;;;;2.88;1.00;;;;;;;;;;5003716;28;20076;-55
2022/02/25 12:02:12;;;;;;;2.28;0.63;;;;;;;;;;5066136;28;20025;-58
2022/02/25 12:05:03;;;;;;;2.92;1.17;;;;;;;;;;5077131;28;20111;-58
2022/02/25 12:08:06;;;;;;;2.80;0.85;;;;;;;;;;5071196;28;20071;-58
2022/02/25 12:10:53;;;;;;;2.70;1.02;;;;;;;;;;5041430;28;20040;-58
2022/02/25 12:14:25;;;;;;;3.25;1.52;;;;;;;;;;5076580;28;20099;-58
2022/02/25 12:16:42;;;;;;;4.40;0.75;;;;;;;;;;5063111;28;20070;-57
2022/02/25 12:19:44;;;;;;;1.90;0.88;;;;;;;;;;5076366;28;20028;-56
2022/02/25 12:22:53;;;;;;;5.18;1.23;;;;;;;;;;5058335;28;20433;-58
2022/02/25 12:28:33;;;;;;;3.13;0.73;;;;;;;;;;5076488;28;20163;-58
2022/02/25 12:31:18;;;;;;;2.15;1.23;;;;;;;;;;5091596;28;20517;-58
2022/02/25 12:34:11;;;;;;;0.68;0.28;;;;;;;;;;5096414;28;20035;-56
2022/02/25 12:37:05;;;;;;;1.95;0.63;;;;;;;;;;5096054;28;20039;-55
2022/02/25 12:40:10;;;;;;;1.92;0.85;;;;;;;;;;5078299;28;20450;-57
2022/02/25 12:43:11;;;;;;;6.50;0.68;;;;;;;;;;5088938;28;20111;-58
2022/02/25 12:46:03;;;;;;;1.23;0.73;;;;;;;;;;5083605;28;20036;-56
2022/02/25 12:48:43;;;;;;;3.05;0.77;;;;;;;;;;5059743;28;20539;-57
2022/02/25 12:51:15;;;;;;;4.82;1.02;;;;;;;;;;5080177;28;20059;-58
2022/02/25 12:54:01;;;;;;;1.60;0.60;;;;;;;;;;5079916;28;20059;-55
2022/02/25 12:56:45;;;;;;;2.00;0.82;;;;;;;;;;5096019;28;20039;-56
2022/02/25 12:59:39;;;;;;;1.95;0.60;;;;;;;;;;5078049;28;20032;-58
2022/02/25 13:05:35;;;;;;;4.45;1.42;;;;;;;;;;5096151;28;20115;-58
2022/02/25 13:08:10;;;;;;;2.30;0.63;;;;;;;;;;5096856;28;20028;-59
2022/02/25 13:11:04;;;;;;;1.48;0.75;;;;;;;;;;5084535;28;20035;-58
2022/02/25 13:13:46;;;;;;;1.50;0.60;;;;;;;;;;5093532;28;20036;-57
2022/02/25 13:16:38;;;;;;;3.55;1.25;;;;;;;;;;5094976;28;20075;-57
2022/02/25 13:26:05;;;;;;;1.85;0.63;;;;;;;;;;5059584;28;20035;-58
2022/02/25 13:28:54;;;;;;;7.78;1.83;;;;;;;;;;5075665;28;20472;-58
2022/02/25 13:34:40;;;;;;;6.32;1.25;;;;;;;;;;5094785;28;20508;-58
2022/02/25 13:43:49;;;;;;;4.82;1.35;;;;;;;;;;5095175;28;20051;-58
2022/02/25 13:52:22;;;;;;;2.42;0.45;;;;;;;;;;5095531;28;20035;-56
2022/02/25 13:55:11;;;;;;;1.23;0.73;;;;;;;;;;5089551;28;20032;-57
2022/02/25 14:01:18;;;;;;;4.38;0.73;;;;;;;;;;4982582;28;20116;-57
2022/02/25 14:04:19;;;;;;;2.72;1.63;;;;;;;;;;5022769;28;20029;-57
2022/02/25 14:07:04;;;;;;;2.45;0.90;;;;;;;;;;5032024;28;20128;-58
2022/02/25 14:09:34;;;;;;;5.18;0.80;;;;;;;;;;5031724;28;20034;-58
2022/02/25 14:12:38;;;;;;;3.17;0.55;;;;;;;;;;5032904;28;20035;-57
2022/02/25 14:15:28;;;;;;;6.53;1.55;;;;;;;;;;5032693;28;20033;-56
2022/02/25 14:18:01;;;;;;;4.30;1.13;;;;;;;;;;5020514;28;20519;-57
2022/02/25 14:20:55;;;;;;;2.83;1.25;;;;;;;;;;5002884;28;20546;-58
2022/02/25 14:23:59;;;;;;;;;;;;;;;;;;;;;
2022/02/25 14:26:41;;;;;;;4.28;1.52;;;;;;;;;;5029358;28;20033;-58
2022/02/25 14:29:26;;;;;;;1.27;0.65;;;;;;;;;;5076357;28;20450;-58
2022/02/25 14:35:54;;;;;;;2.53;1.00;;;;;;;;;;5049077;28;20024;-56
2022/02/25 14:38:47;;;;;;;4.32;0.75;;;;;;;;;;4992797;28;20074;-58
2022/02/25 14:41:31;;;;;;;1.95;0.50;;;;;;;;;;4947351;28;20447;-56
2022/02/25 14:44:45;;;;;;;;;;;;;;;;;;;;;
2022/02/25 14:47:42;;;;;;;7.20;0.98;;;;;;;;;;4964422;28;20052;-57
2022/02/25 14:50:26;;;;;;;2.72;0.73;;;;;;;;;;5094184;28;20032;-58
2022/02/25 14:53:15;;;;;;;5.45;1.60;;;;;;;;;;5044435;28;20044;-57
2022/02/25 14:55:56;;;;;;;2.30;0.93;;;;;;;;;;5044728;28;20489;-57
2022/02/25 14:58:45;;;;;;;1.52;0.85;;;;;;;;;;5094539;28;20477;-57
2022/02/25 15:02:24;;;;;;;8.23;1.42;;;;;;;;;;5091382;28;20058;-58
2022/02/25 15:04:33;;;;;;;2.70;1.10;;;;;;;;;;5076123;28;20039;-58
2022/02/25 15:10:33;;;;;;;3.42;2.10;;;;;;;;;;5098865;28;20036;-58
2022/02/25 15:13:11;;;;;;;3.47;1.27;;;;;;;;;;5098874;28;20040;-58
2022/02/25 15:16:16;;;;;;;1.88;0.77;;;;;;;;;;5098684;28;20051;-57
2022/02/25 15:22:01;;;;;;;;;;;;;;;;;;;;;
2022/02/25 15:24:58;;;;;;;4.68;0.73;;;;;;;;;;5028921;28;20142;-58
2022/02/25 15:30:30;;;;;;;3.30;0.57;;;;;;;;;;5100644;28;20040;-58
2022/02/25 15:32:59;;;;;;;4.63;1.23;;;;;;;;;;5101418;28;20024;-58
2022/02/25 15:36:11;;;;;;;4.90;1.63;;;;;;;;;;5096546;28;20548;-58
2022/02/25 15:39:06;;;;;;;2.65;0.75;;;;;;;;;;5096571;28;20529;-58
2022/02/25 15:45:03;;;;;;;3.13;1.27;;;;;;;;;;5014414;28;20036;-57
2022/02/25 15:47:36;;;;;;;3.50;1.33;;;;;;;;;;5077856;28;20093;-58
2022/02/25 15:50:18;;;;;;;3.75;1.33;;;;;;;;;;5097647;28;20091;-58
2022/02/25 15:53:18;;;;;;;3.80;1.23;;;;;;;;;;5079769;28;20024;-58
2022/02/25 15:56:12;;;;;;;6.32;1.50;;;;;;;;;;5097279;28;20404;-58
2022/02/25 15:59:18;;;;;;;1.65;0.82;;;;;;;;;;5044911;28;20043;-58
2022/02/25 16:02:13;;;;;;;2.65;1.15;;;;;;;;;;5058301;28;20036;-56
2022/02/25 16:05:06;;;;;;;5.03;1.70;;;;;;;;;;5096701;28;20103;-58
2022/02/25 16:07:54;;;;;;;6.68;1.58;;;;;;;;;;5095561;28;20039;-58
2022/02/25 16:13:59;;;;;;;7.47;1.25;;;;;;;;;;5097146;28;20035;-57
2022/02/25 16:16:48;;;;;;;7.97;1.45;;;;;;;;;;5061405;28;20047;-58
2022/02/25 16:19:41;;;;;;;4.68;1.73;;;;;;;;;;5078383;28;20562;-58
2022/02/25 16:22:36;;;;;;;2.45;1.00;;;;;;;;;;5092639;28;20058;-58
2022/02/25 16:25:09;;;;;;;2.63;1.33;;;;;;;;;;5097034;28;20025;-58
2022/02/25 16:28:04;;;;;;;3.25;0.90;;;;;;;;;;5096723;28;20119;-59
2022/02/25 16:30:42;;;;;;;2.05;0.80;;;;;;;;;;5095728;28;20050;-58
2022/02/25 16:33:26;;;;;;;4.68;0.77;;;;;;;;;;5097150;28;20043;-58
2022/02/25 16:36:10;;;;;;;3.47;1.38;;;;;;;;;;5096034;28;20039;-58
2022/02/25 16:39:14;;;;;;;2.50;0.88;;;;;;;;;;5077303;28;20047;-57
2022/02/25 16:50:40;;;;;;;0.65;0.45;;;;;;;;;;5081803;28;20073;-58
2022/02/25 16:54:03;;;;;;;;;;;;;;;;;;;;;
2022/02/25 16:59:16;;;;;;;3.75;1.77;;;;;;;;;;5095879;28;20512;-58
2022/02/25 17:05:00;;;;;;;;;;;;;;;;;;5096594;28;20047;-57
2022/02/25 17:07:40;;;;;;;2.73;1.07;;;;;;;;;;5088119;28;20254;-58
2022/02/25 17:10:24;;;;;;;2.33;0.90;;;;;;;;;;5077144;28;20044;-59
2022/02/25 17:13:05;;;;;;;4.03;1.00;;;;;;;;;;5077224;28;20030;-58
2022/02/25 17:15:49;;;;;;;3.60;1.20;;;;;;;;;;5092955;28;20473;-58
2022/02/25 17:19:05;;;;;;;2.67;1.15;;;;;;;;;;5085491;28;20465;-57
2022/02/25 17:21:55;;;;;;;2.70;1.05;;;;;;;;;;4993555;28;20037;-59
2022/02/25 17:24:39;;;;;;;6.28;1.27;;;;;;;;;;5096190;28;20079;-58
2022/02/25 17:27:33;;;;;;;2.65;1.10;;;;;;;;;;5095731;28;20058;-58
2022/02/25 17:30:11;;;;;;;5.22;1.40;;;;;;;;;;5055468;28;20060;-58
2022/02/25 17:32:51;;;;;;;4.72;1.30;;;;;;;;;;5094534;28;20153;-58
2022/02/25 17:35:20;;;;;;;8.27;2.72;;;;;;;;;;5095643;28;20466;-59
2022/02/25 17:38:10;;;;;;;2.70;1.60;;;;;;;;;;5069121;28;20111;-58
2022/02/25 17:40:39;;;;;;;;;;;;;;;;;;5096956;28;20077;-58
2022/02/25 17:43:15;;;;;;;8.20;1.53;;;;;;;;;;5094193;28;19904;-58
2022/02/25 17:49:02;;;;;;;2.43;1.63;;;;;;;;;;5095531;28;20066;-58
2022/02/25 17:51:46;;;;;;;4.83;1.77;;;;;;;;;;5099746;28;20427;-58
2022/02/25 17:54:25;;;;;;;3.20;1.23;;;;;;;;;;5076112;28;20145;-57
2022/02/25 17:57:36;;;;;;;;;;;;;;;;;;;;;
2022/02/25 18:00:22;;;;;;;;;;;;;;;;;;;;;
2022/02/25 18:03:19;;;;;;;2.40;1.07;;;;;;;;;;5090008;28;20381;-56
2022/02/25 18:06:17;;;;;;;1.67;0.90;;;;;;;;;;5094763;28;20082;-58
2022/02/25 18:09:10;;;;;;;2.67;1.20;;;;;;;;;;5094278;28;20040;-58
2022/02/25 18:12:19;;;;;;;1.57;0.93;;;;;;;;;;5094281;28;20454;-58
2022/02/25 18:15:09;;;;;;;6.00;1.83;;;;;;;;;;5079387;28;20069;-57
2022/02/25 18:17:56;;;;;;;7.13;2.07;;;;;;;;;;5080823;28;20043;-56
2022/02/25 18:20:42;;;;;;;;;;;;;;;;;;;;;
2022/02/25 18:23:37;;;;;;;;;;;;;;;;;;;;;
2022/02/25 18:29:28;;;;;;;4.37;2.13;;;;;;;;;;5011997;28;20029;-57
2022/02/25 18:32:27;;;;;;;4.17;1.37;;;;;;;;;;5070841;28;20504;-57
2022/02/25 18:35:44;;;;;;;2.93;2.13;;;;;;;;;;4992371;28;20078;-58
2022/02/25 18:38:19;;;;;;;4.17;2.00;;;;;;;;;;4933948;29;20051;-59
2022/02/25 18:41:15;;;;;;;10.18;2.47;;;;;;;;;;4936756;29;20027;-58
2022/02/25 18:43:52;;;;;;;4.30;2.90;;;;;;;;;;4940797;29;20035;-57
2022/02/25 18:46:37;;;;;;;3.17;1.40;;;;;;;;;;4939915;29;20455;-58
2022/02/25 18:49:27;;;;;;;3.53;1.43;;;;;;;;;;4962805;28;20081;-58
2022/02/25 18:52:17;;;;;;;5.07;2.47;;;;;;;;;;4999460;28;20038;-59
2022/02/25 18:57:42;;;;;;;6.23;1.87;;;;;;;;;;4997978;28;20086;-59
2022/02/25 19:00:37;;;;;;;;;;;;;;;;;;;;;
2022/02/25 19:06:43;;;;;;;3.57;1.93;;;;;;;;;;5051093;28;20024;-58
2022/02/25 19:09:41;;;;;;;3.73;1.60;;;;;;;;;;5083337;28;20462;-59
2022/02/25 19:12:39;;;;;;;;;;;;;;;;;;;;;
2022/02/25 19:15:17;;;;;;;5.90;1.57;;;;;;;;;;5096474;28;20038;-58
2022/02/25 19:21:46;;;;;;;4.10;1.77;;;;;;;;;;5055265;28;20085;-58
2022/02/25 19:24:40;;;;;;;7.23;2.23;;;;;;;;;;5098293;28;20056;-59
2022/02/25 19:27:19;;;;;;;5.70;1.37;;;;;;;;;;5099481;28;20428;-59
2022/02/25 19:41:51;;;;;;;5.13;1.63;;;;;;;;;;5100656;28;20473;-59
2022/02/25 19:44:34;;;;;;;;;;;;;;;;;;;;;
2022/02/25 19:47:06;;;;;;;2.40;1.73;;;;;;;;;;5061799;28;20393;-58
2022/02/25 19:53:07;;;;;;;7.30;2.37;;;;;;;;;;5059396;28;20577;-58
2022/02/25 20:07:51;;;;;;;4.10;1.70;;;;;;;;;;5101953;28;20046;-59
2022/02/25 20:10:51;;;;;;;4.67;2.30;;;;;;;;;;5093517;28;20509;-57
2022/02/25 20:13:27;;;;;;;4.15;1.95;;;;;;;;;;5077166;28;20036;-59
2022/02/25 20:16:25;;;;;;;4.97;2.13;;;;;;;;;;5078547;28;20020;-58
2022/02/25 20:19:22;;;;;;;5.63;1.97;;;;;;;;;;5096430;28;20036;-59
2022/02/25 20:32:07;;;;;;;4.07;1.70;;;;;;;;;;4984077;28;20050;-59
2022/02/25 20:35:02;;;;;;;8.13;2.00;;;;;;;;;;5041634;28;20047;-59
2022/02/25 20:38:11;;;;;;;;;;;;;;;;;;;;;
2022/02/25 20:41:00;;;;;;;9.17;2.53;;;;;;;;;;5072627;28;20028;-59
2022/02/25 20:43:51;;;;;;;15.37;2.43;;;;;;;;;;5057655;28;20032;-58
2022/02/25 20:50:01;;;;;;;6.23;2.20;;;;;;;;;;5066304;28;20090;-59
2022/02/25 20:56:17;;;;;;;7.50;3.13;;;;;;;;;;5044044;28;20025;-58
2022/02/25 20:59:01;;;;;;;8.53;2.97;;;;;;;;;;4969032;28;20047;-59
2022/02/25 21:01:53;;;;;;;9.13;2.60;;;;;;;;;;4974971;28;20410;-59
2022/02/25 21:04:57;;;;;;;7.60;2.13;;;;;;;;;;4932395;28;20130;-59
2022/02/25 21:07:45;;;;;;;7.03;1.97;;;;;;;;;;4974427;28;20041;-59
2022/02/25 21:10:40;;;;;;;3.30;1.87;;;;;;;;;;5034278;28;20029;-59
2022/02/25 21:16:29;;;;;;;1.35;0.82;;;;;;;;;;5075756;28;20035;-58
2022/02/25 21:19:02;;;;;;;2.63;1.57;;;;;;;;;;5075798;28;20108;-57
2022/02/25 21:22:09;;;;;;;2.00;1.03;;;;;;;;;;5076285;28;20020;-59
2022/02/25 21:28:02;;;;;;;3.00;0.87;;;;;;;;;;4974129;28;20035;-56
2022/02/25 21:30:54;;;;;;;;;;;;;;;;;;;;;
2022/02/25 21:33:36;;;;;;;5.20;1.87;;;;;;;;;;5089448;28;20056;-59
2022/02/25 21:36:14;;;;;;;5.80;1.90;;;;;;;;;;5095654;28;20439;-59
2022/02/25 21:38:54;;;;;;;5.47;1.93;;;;;;;;;;5067377;28;20044;-59
2022/02/25 21:41:38;;;;;;;5.07;1.77;;;;;;;;;;5095447;28;20510;-59
2022/02/25 21:44:36;;;;;;;11.60;2.30;;;;;;;;;;5095151;28;20486;-59
2022/02/25 21:47:46;;;;;;;;;;;;;;;;;;;;;
2022/02/25 21:53:40;;;;;;;6.57;1.63;;;;;;;;;;5077923;28;20142;-58
2022/02/25 21:56:29;;;;;;;;;;;;;;;;;;;;;
2022/02/25 22:02:07;;;;;;;5.10;2.10;;;;;;;;;;5093484;28;20052;-59
2022/02/25 22:04:51;;;;;;;9.70;2.83;;;;;;;;;;5089553;28;20027;-59
2022/02/25 22:07:45;;;;;;;7.00;2.67;;;;;;;;;;5108690;28;20028;-59
2022/02/25 22:10:23;;;;;;;12.50;2.65;;;;;;;;;;5103603;28;20043;-59
2022/02/25 22:13:09;;;;;;;6.13;2.60;;;;;;;;;;5109272;28;20087;-59
2022/02/25 22:15:54;;;;;;;4.28;2.25;;;;;;;;;;5108626;28;20048;-57
2022/02/25 22:21:36;;;;;;;4.70;2.47;;;;;;;;;;5078858;28;20058;-59
2022/02/25 22:24:21;;;;;;;3.10;1.80;;;;;;;;;;5109196;28;20042;-59
2022/02/25 22:27:00;;;;;;;;;;;;;;;;;;;;;
2022/02/25 22:32:35;;;;;;;;;;;;;;;;;;;;;
2022/02/25 22:38:15;;;;;;;2.90;1.73;;;;;;;;;;5026151;28;20084;-59
2022/02/25 22:44:28;;;;;;;7.87;2.07;;;;;;;;;;5025772;28;20114;-59
2022/02/25 22:47:14;;;;;;;4.90;2.30;;;;;;;;;;5026277;28;20550;-59
2022/02/25 23:07:42;;;;;;;6.30;2.50;;;;;;;;;;5107913;28;20039;-58
2022/02/25 23:10:15;;;;;;;3.20;2.23;;;;;;;;;;5108518;28;20023;-59
2022/02/25 23:13:19;;;;;;;4.23;1.80;;;;;;;;;;5105530;28;20028;-59
2022/02/25 23:16:04;;;;;;;3.17;1.67;;;;;;;;;;5096702;28;20067;-58
2022/02/25 23:19:11;;;;;;;4.10;2.00;;;;;;;;;;5045892;28;20075;-58
2022/02/25 23:22:12;;;;;;;3.07;1.73;;;;;;;;;;4995809;28;20376;-59
2022/02/25 23:34:29;;;;;;;3.47;1.65;;;;;;;;;;5016916;28;20041;-59
2022/02/25 23:40:19;;;;;;;5.20;2.27;;;;;;;;;;5111591;28;20089;-58
2022/02/25 23:43:08;;;;;;;6.77;2.27;;;;;;;;;;5112127;28;20028;-59
2022/02/25 23:45:53;;;;;;;3.97;1.80;;;;;;;;;;5112094;28;20039;-59
2022/02/25 23:48:46;;;;;;;7.27;2.50;;;;;;;;;;5107826;28;20048;-59
2022/02/25 23:54:59;;;;;;;2.60;1.43;;;;;;;;;;5111451;28;20039;-59
2022/02/25 23:57:42;;;;;;;4.73;2.10;;;;;;;;;;5108229;28;20103;-58
